sensor_id;sensor_type;location;lat;lon;timestamp;temperature;humidity
6379;DHT22;3222;48.858;10.128;2022-10-18T00:01:32;16.10;99.90
6379;DHT22;3222;48.858;10.128;2022-10-18T00:03:58;16.00;99.90
6379;DHT22;3222;48.858;10.128;2022-10-18T00:06:23;16.10;99.90
6379;DHT22;3222;48.858;10.128;2022-10-18T00:08:49;16.30;99.90
6379;DHT22;3222;48.858;10.128;2022-10-18T00:11:15;16.50;99.90
6379;DHT22;3222;48.858;10.128;2022-10-18T00:13:40;16.60;99.90
6379;DHT22;3222;48.858;10.128;2022-10-18T00:16:11;16.80;99.90
6379;DHT22;3222;48.858;10.128;2022-10-18T00:18:36;16.80;99.90
6379;DHT22;3222;48.858;10.128;2022-10-18T00:21:06;16.90;99.90
6379;DHT22;3222;48.858;10.128;2022-10-18T00:23:33;16.90;99.90
6379;DHT22;3222;48.858;10.128;2022-10-18T00:28:24;16.60;99.90
6379;DHT22;3222;48.858;10.128;2022-10-18T00:30:50;16.40;99.90
6379;DHT22;3222;48.858;10.128;2022-10-18T00:33:16;16.40;99.90
6379;DHT22;3222;48.858;10.128;2022-10-18T00:35:41;16.40;99.90
6379;DHT22;3222;48.858;10.128;2022-10-18T00:38:07;16.30;99.90
6379;DHT22;3222;48.858;10.128;2022-10-18T00:40:33;16.20;99.90
6379;DHT22;3222;48.858;10.128;2022-10-18T00:42:58;16.20;99.90
6379;DHT22;3222;48.858;10.128;2022-10-18T00:45:24;16.20;99.90
6379;DHT22;3222;48.858;10.128;2022-10-18T00:47:54;16.20;99.90
6379;DHT22;3222;48.858;10.128;2022-10-18T00:50:22;16.20;99.90
6379;DHT22;3222;48.858;10.128;2022-10-18T00:52:53;16.30;99.90
6379;DHT22;3222;48.858;10.128;2022-10-18T00:55:19;16.50;99.90
6379;DHT22;3222;48.858;10.128;2022-10-18T00:57:45;16.60;99.90
6379;DHT22;3222;48.858;10.128;2022-10-18T01:00:12;16.60;99.90
6379;DHT22;3222;48.858;10.128;2022-10-18T01:02:40;16.50;99.90
6379;DHT22;3222;48.858;10.128;2022-10-18T01:05:06;16.50;99.90
6379;DHT22;3222;48.858;10.128;2022-10-18T01:10:54;16.70;99.90
6379;DHT22;3222;48.858;10.128;2022-10-18T01:16:16;16.70;99.90
6379;DHT22;3222;48.858;10.128;2022-10-18T01:18:48;16.70;99.90
6379;DHT22;3222;48.858;10.128;2022-10-18T01:32:00;16.40;99.90
6379;DHT22;3222;48.858;10.128;2022-10-18T01:34:31;16.50;99.90
6379;DHT22;3222;48.858;10.128;2022-10-18T01:37:00;16.40;99.90
6379;DHT22;3222;48.858;10.128;2022-10-18T01:39:33;16.40;99.90
6379;DHT22;3222;48.858;10.128;2022-10-18T01:42:05;16.50;99.90
6379;DHT22;3222;48.858;10.128;2022-10-18T01:44:32;16.50;99.90
6379;DHT22;3222;48.858;10.128;2022-10-18T01:46:58;16.50;99.90
6379;DHT22;3222;48.858;10.128;2022-10-18T01:49:25;16.50;99.90
6379;DHT22;3222;48.858;10.128;2022-10-18T01:51:52;16.70;99.90
6379;DHT22;3222;48.858;10.128;2022-10-18T01:54:35;16.60;99.90
6379;DHT22;3222;48.858;10.128;2022-10-18T02:05:36;16.40;99.90
6379;DHT22;3222;48.858;10.128;2022-10-18T02:08:29;16.30;99.90
6379;DHT22;3222;48.858;10.128;2022-10-18T02:14:13;16.40;99.90
6379;DHT22;3222;48.858;10.128;2022-10-18T02:16:24;16.40;99.90
6379;DHT22;3222;48.858;10.128;2022-10-18T02:21:39;16.40;99.90
6379;DHT22;3222;48.858;10.128;2022-10-18T02:24:07;16.30;99.90
6379;DHT22;3222;48.858;10.128;2022-10-18T02:26:33;16.30;99.90
6379;DHT22;3222;48.858;10.128;2022-10-18T02:28:59;16.50;99.90
6379;DHT22;3222;48.858;10.128;2022-10-18T02:31:29;16.40;99.90
6379;DHT22;3222;48.858;10.128;2022-10-18T02:34:39;16.50;99.90
6379;DHT22;3222;48.858;10.128;2022-10-18T02:36:59;16.60;99.90
6379;DHT22;3222;48.858;10.128;2022-10-18T02:39:32;16.50;99.90
6379;DHT22;3222;48.858;10.128;2022-10-18T02:41:58;16.40;99.90
6379;DHT22;3222;48.858;10.128;2022-10-18T02:44:24;16.50;99.90
6379;DHT22;3222;48.858;10.128;2022-10-18T02:46:50;16.60;99.90
6379;DHT22;3222;48.858;10.128;2022-10-18T02:49:16;16.70;99.90
6379;DHT22;3222;48.858;10.128;2022-10-18T02:51:41;16.60;99.90
6379;DHT22;3222;48.858;10.128;2022-10-18T02:54:07;16.50;99.90
6379;DHT22;3222;48.858;10.128;2022-10-18T02:56:33;16.50;99.90
6379;DHT22;3222;48.858;10.128;2022-10-18T02:58:59;16.40;99.90
6379;DHT22;3222;48.858;10.128;2022-10-18T03:01:26;16.40;99.90
6379;DHT22;3222;48.858;10.128;2022-10-18T03:03:52;16.40;99.90
6379;DHT22;3222;48.858;10.128;2022-10-18T03:06:18;16.40;99.90
6379;DHT22;3222;48.858;10.128;2022-10-18T03:08:44;16.40;99.90
6379;DHT22;3222;48.858;10.128;2022-10-18T03:11:09;16.40;99.90
6379;DHT22;3222;48.858;10.128;2022-10-18T03:13:35;16.30;99.90
6379;DHT22;3222;48.858;10.128;2022-10-18T03:16:01;16.30;99.90
6379;DHT22;3222;48.858;10.128;2022-10-18T03:18:27;16.30;99.90
6379;DHT22;3222;48.858;10.128;2022-10-18T03:20:52;16.30;99.90
6379;DHT22;3222;48.858;10.128;2022-10-18T03:23:18;16.30;99.90
6379;DHT22;3222;48.858;10.128;2022-10-18T03:25:44;16.30;99.90
6379;DHT22;3222;48.858;10.128;2022-10-18T03:28:09;16.30;99.90
6379;DHT22;3222;48.858;10.128;2022-10-18T03:30:35;16.30;99.90
6379;DHT22;3222;48.858;10.128;2022-10-18T03:33:06;16.30;99.90
6379;DHT22;3222;48.858;10.128;2022-10-18T03:35:32;16.30;99.90
6379;DHT22;3222;48.858;10.128;2022-10-18T03:37:57;16.20;99.90
6379;DHT22;3222;48.858;10.128;2022-10-18T03:40:23;16.20;99.90
6379;DHT22;3222;48.858;10.128;2022-10-18T03:42:49;16.20;99.90
6379;DHT22;3222;48.858;10.128;2022-10-18T03:45:14;16.20;99.90
6379;DHT22;3222;48.858;10.128;2022-10-18T03:47:40;16.20;99.90
6379;DHT22;3222;48.858;10.128;2022-10-18T03:50:06;16.40;99.90
6379;DHT22;3222;48.858;10.128;2022-10-18T03:52:32;16.40;99.90
6379;DHT22;3222;48.858;10.128;2022-10-18T03:54:57;16.40;99.90
6379;DHT22;3222;48.858;10.128;2022-10-18T03:57:23;16.40;99.90
6379;DHT22;3222;48.858;10.128;2022-10-18T03:59:49;16.50;99.90
6379;DHT22;3222;48.858;10.128;2022-10-18T04:02:14;16.40;99.90
6379;DHT22;3222;48.858;10.128;2022-10-18T04:04:40;16.30;99.90
6379;DHT22;3222;48.858;10.128;2022-10-18T04:07:06;16.30;99.90
6379;DHT22;3222;48.858;10.128;2022-10-18T04:09:31;16.30;99.90
6379;DHT22;3222;48.858;10.128;2022-10-18T04:11:57;16.30;99.90
6379;DHT22;3222;48.858;10.128;2022-10-18T04:14:23;16.20;99.90
6379;DHT22;3222;48.858;10.128;2022-10-18T04:16:48;16.30;99.90
6379;DHT22;3222;48.858;10.128;2022-10-18T04:19:14;16.30;99.90
6379;DHT22;3222;48.858;10.128;2022-10-18T04:21:40;16.30;99.90
6379;DHT22;3222;48.858;10.128;2022-10-18T04:24:05;16.30;99.90
6379;DHT22;3222;48.858;10.128;2022-10-18T04:26:31;16.30;99.90
6379;DHT22;3222;48.858;10.128;2022-10-18T04:28:57;16.30;99.90
6379;DHT22;3222;48.858;10.128;2022-10-18T04:31:22;16.30;99.90
6379;DHT22;3222;48.858;10.128;2022-10-18T04:33:48;16.30;99.90
6379;DHT22;3222;48.858;10.128;2022-10-18T04:36:13;16.30;99.90
6379;DHT22;3222;48.858;10.128;2022-10-18T04:38:39;16.30;99.90
6379;DHT22;3222;48.858;10.128;2022-10-18T04:41:05;16.30;99.90
6379;DHT22;3222;48.858;10.128;2022-10-18T04:43:30;16.20;99.90
6379;DHT22;3222;48.858;10.128;2022-10-18T04:45:56;16.20;99.90
6379;DHT22;3222;48.858;10.128;2022-10-18T04:48:22;16.20;99.90
6379;DHT22;3222;48.858;10.128;2022-10-18T04:50:49;16.20;99.90
6379;DHT22;3222;48.858;10.128;2022-10-18T04:53:16;16.30;99.90
6379;DHT22;3222;48.858;10.128;2022-10-18T04:55:47;16.20;99.90
6379;DHT22;3222;48.858;10.128;2022-10-18T04:58:14;16.30;99.90
6379;DHT22;3222;48.858;10.128;2022-10-18T05:00:40;16.20;99.90
6379;DHT22;3222;48.858;10.128;2022-10-18T05:03:06;16.20;99.90
6379;DHT22;3222;48.858;10.128;2022-10-18T05:05:32;16.20;99.90
6379;DHT22;3222;48.858;10.128;2022-10-18T05:07:57;16.30;99.90
6379;DHT22;3222;48.858;10.128;2022-10-18T05:10:23;16.20;99.90
6379;DHT22;3222;48.858;10.128;2022-10-18T05:12:48;16.20;99.90
6379;DHT22;3222;48.858;10.128;2022-10-18T05:15:14;16.20;99.90
6379;DHT22;3222;48.858;10.128;2022-10-18T05:17:40;16.20;99.90
6379;DHT22;3222;48.858;10.128;2022-10-18T05:20:05;16.30;99.90
6379;DHT22;3222;48.858;10.128;2022-10-18T05:22:31;16.30;99.90
6379;DHT22;3222;48.858;10.128;2022-10-18T05:24:57;16.30;99.90
6379;DHT22;3222;48.858;10.128;2022-10-18T05:27:22;16.30;99.90
6379;DHT22;3222;48.858;10.128;2022-10-18T05:29:48;16.40;99.90
6379;DHT22;3222;48.858;10.128;2022-10-18T05:32:14;16.30;99.90
6379;DHT22;3222;48.858;10.128;2022-10-18T05:34:39;16.20;99.90
6379;DHT22;3222;48.858;10.128;2022-10-18T05:37:05;16.20;99.90
6379;DHT22;3222;48.858;10.128;2022-10-18T05:39:31;16.20;99.90
6379;DHT22;3222;48.858;10.128;2022-10-18T05:41:57;16.20;99.90
6379;DHT22;3222;48.858;10.128;2022-10-18T05:44:23;16.30;99.90
6379;DHT22;3222;48.858;10.128;2022-10-18T05:46:48;16.30;99.90
6379;DHT22;3222;48.858;10.128;2022-10-18T05:49:14;16.20;99.90
6379;DHT22;3222;48.858;10.128;2022-10-18T05:51:40;16.20;99.90
6379;DHT22;3222;48.858;10.128;2022-10-18T05:54:06;16.20;99.90
6379;DHT22;3222;48.858;10.128;2022-10-18T05:56:31;16.20;99.90
6379;DHT22;3222;48.858;10.128;2022-10-18T05:58:57;16.30;99.90
6379;DHT22;3222;48.858;10.128;2022-10-18T06:01:23;16.20;99.90
6379;DHT22;3222;48.858;10.128;2022-10-18T06:03:49;16.20;99.90
6379;DHT22;3222;48.858;10.128;2022-10-18T06:06:15;16.20;99.90
6379;DHT22;3222;48.858;10.128;2022-10-18T06:08:42;16.20;99.90
6379;DHT22;3222;48.858;10.128;2022-10-18T06:11:13;16.20;99.90
6379;DHT22;3222;48.858;10.128;2022-10-18T06:13:41;16.30;99.90
6379;DHT22;3222;48.858;10.128;2022-10-18T06:16:07;16.30;99.90
6379;DHT22;3222;48.858;10.128;2022-10-18T06:18:33;16.40;99.90
6379;DHT22;3222;48.858;10.128;2022-10-18T06:20:58;16.40;99.90
6379;DHT22;3222;48.858;10.128;2022-10-18T06:23:25;16.40;99.90
6379;DHT22;3222;48.858;10.128;2022-10-18T06:25:51;16.40;99.90
6379;DHT22;3222;48.858;10.128;2022-10-18T06:28:17;16.40;99.90
6379;DHT22;3222;48.858;10.128;2022-10-18T06:30:43;16.40;99.90
6379;DHT22;3222;48.858;10.128;2022-10-18T06:33:09;16.40;99.90
6379;DHT22;3222;48.858;10.128;2022-10-18T06:35:36;16.40;99.90
6379;DHT22;3222;48.858;10.128;2022-10-18T06:38:02;16.40;99.90
6379;DHT22;3222;48.858;10.128;2022-10-18T06:40:28;16.50;99.90
6379;DHT22;3222;48.858;10.128;2022-10-18T06:42:55;16.40;99.90
6379;DHT22;3222;48.858;10.128;2022-10-18T06:45:21;16.50;99.90
6379;DHT22;3222;48.858;10.128;2022-10-18T06:47:47;16.60;99.90
6379;DHT22;3222;48.858;10.128;2022-10-18T06:50:12;16.60;99.90
6379;DHT22;3222;48.858;10.128;2022-10-18T06:52:38;16.50;99.90
6379;DHT22;3222;48.858;10.128;2022-10-18T06:55:06;16.60;99.90
6379;DHT22;3222;48.858;10.128;2022-10-18T06:57:32;16.60;99.90
6379;DHT22;3222;48.858;10.128;2022-10-18T06:59:57;16.50;99.90
6379;DHT22;3222;48.858;10.128;2022-10-18T07:02:23;16.50;99.90
6379;DHT22;3222;48.858;10.128;2022-10-18T07:04:49;16.50;99.90
6379;DHT22;3222;48.858;10.128;2022-10-18T07:07:14;16.40;99.90
6379;DHT22;3222;48.858;10.128;2022-10-18T07:09:40;16.50;99.90
6379;DHT22;3222;48.858;10.128;2022-10-18T07:12:06;16.50;99.90
6379;DHT22;3222;48.858;10.128;2022-10-18T07:14:31;16.50;99.90
6379;DHT22;3222;48.858;10.128;2022-10-18T07:17:00;16.60;99.90
6379;DHT22;3222;48.858;10.128;2022-10-18T07:19:26;16.60;99.90
6379;DHT22;3222;48.858;10.128;2022-10-18T07:21:51;16.60;99.90
6379;DHT22;3222;48.858;10.128;2022-10-18T07:24:17;16.60;99.90
6379;DHT22;3222;48.858;10.128;2022-10-18T07:26:42;16.70;99.90
6379;DHT22;3222;48.858;10.128;2022-10-18T07:29:10;16.70;99.90
6379;DHT22;3222;48.858;10.128;2022-10-18T07:31:36;16.70;99.90
6379;DHT22;3222;48.858;10.128;2022-10-18T07:34:04;16.80;99.90
6379;DHT22;3222;48.858;10.128;2022-10-18T07:36:30;16.90;99.90
6379;DHT22;3222;48.858;10.128;2022-10-18T07:38:56;16.90;99.90
6379;DHT22;3222;48.858;10.128;2022-10-18T07:41:22;17.00;99.90
6379;DHT22;3222;48.858;10.128;2022-10-18T07:43:49;17.10;99.90
6379;DHT22;3222;48.858;10.128;2022-10-18T07:46:16;17.10;99.90
6379;DHT22;3222;48.858;10.128;2022-10-18T07:48:42;17.20;99.90
6379;DHT22;3222;48.858;10.128;2022-10-18T07:51:08;17.20;99.90
6379;DHT22;3222;48.858;10.128;2022-10-18T07:53:34;17.30;99.90
6379;DHT22;3222;48.858;10.128;2022-10-18T07:56:06;17.30;99.90
6379;DHT22;3222;48.858;10.128;2022-10-18T07:58:33;17.30;99.90
6379;DHT22;3222;48.858;10.128;2022-10-18T08:01:03;17.30;99.90
6379;DHT22;3222;48.858;10.128;2022-10-18T08:03:30;17.40;99.90
6379;DHT22;3222;48.858;10.128;2022-10-18T08:05:56;17.40;99.90
6379;DHT22;3222;48.858;10.128;2022-10-18T08:08:22;17.50;99.90
6379;DHT22;3222;48.858;10.128;2022-10-18T08:10:48;17.50;99.90
6379;DHT22;3222;48.858;10.128;2022-10-18T08:13:14;17.50;99.90
6379;DHT22;3222;48.858;10.128;2022-10-18T08:15:40;17.50;99.90
6379;DHT22;3222;48.858;10.128;2022-10-18T08:18:06;17.70;99.90
6379;DHT22;3222;48.858;10.128;2022-10-18T08:20:31;17.60;99.90
6379;DHT22;3222;48.858;10.128;2022-10-18T08:22:58;17.70;99.90
6379;DHT22;3222;48.858;10.128;2022-10-18T08:25:24;17.70;99.90
6379;DHT22;3222;48.858;10.128;2022-10-18T08:27:49;17.70;99.90
6379;DHT22;3222;48.858;10.128;2022-10-18T08:30:15;17.80;99.90
6379;DHT22;3222;48.858;10.128;2022-10-18T08:32:42;17.90;99.90
6379;DHT22;3222;48.858;10.128;2022-10-18T08:35:07;17.80;99.90
6379;DHT22;3222;48.858;10.128;2022-10-18T08:37:34;17.90;99.90
6379;DHT22;3222;48.858;10.128;2022-10-18T08:40:00;17.90;99.90
6379;DHT22;3222;48.858;10.128;2022-10-18T08:45:00;17.70;99.90
6379;DHT22;3222;48.858;10.128;2022-10-18T08:47:37;17.80;99.90
6379;DHT22;3222;48.858;10.128;2022-10-18T08:50:05;17.90;99.90
6379;DHT22;3222;48.858;10.128;2022-10-18T08:55:27;17.90;99.90
6379;DHT22;3222;48.858;10.128;2022-10-18T08:57:53;18.00;99.90
6379;DHT22;3222;48.858;10.128;2022-10-18T09:00:23;18.10;99.90
6379;DHT22;3222;48.858;10.128;2022-10-18T09:02:53;18.10;99.90
6379;DHT22;3222;48.858;10.128;2022-10-18T09:05:27;18.20;99.90
6379;DHT22;3222;48.858;10.128;2022-10-18T09:08:12;18.20;99.90
6379;DHT22;3222;48.858;10.128;2022-10-18T09:14:16;18.20;99.90
6379;DHT22;3222;48.858;10.128;2022-10-18T09:16:38;18.20;99.90
6379;DHT22;3222;48.858;10.128;2022-10-18T09:21:52;18.30;99.90
6379;DHT22;3222;48.858;10.128;2022-10-18T09:24:25;18.30;99.90
6379;DHT22;3222;48.858;10.128;2022-10-18T09:26:57;18.30;99.90
6379;DHT22;3222;48.858;10.128;2022-10-18T09:34:51;18.40;99.90
6379;DHT22;3222;48.858;10.128;2022-10-18T09:37:19;18.40;99.90
6379;DHT22;3222;48.858;10.128;2022-10-18T09:39:47;18.50;99.90
6379;DHT22;3222;48.858;10.128;2022-10-18T09:42:18;18.50;99.90
6379;DHT22;3222;48.858;10.128;2022-10-18T09:53:36;18.60;99.90
6379;DHT22;3222;48.858;10.128;2022-10-18T09:56:17;18.60;99.90
6379;DHT22;3222;48.858;10.128;2022-10-18T09:58:48;18.60;99.90
6379;DHT22;3222;48.858;10.128;2022-10-18T10:01:20;18.70;99.90
6379;DHT22;3222;48.858;10.128;2022-10-18T10:03:46;18.80;99.90
6379;DHT22;3222;48.858;10.128;2022-10-18T10:08:48;18.80;99.90
6379;DHT22;3222;48.858;10.128;2022-10-18T10:11:33;18.80;99.90
6379;DHT22;3222;48.858;10.128;2022-10-18T10:16:47;18.90;99.90
6379;DHT22;3222;48.858;10.128;2022-10-18T10:22:11;18.90;99.90
6379;DHT22;3222;48.858;10.128;2022-10-18T10:24:48;18.90;99.90
6379;DHT22;3222;48.858;10.128;2022-10-18T10:29:57;19.00;99.90
6379;DHT22;3222;48.858;10.128;2022-10-18T10:32:26;19.00;99.90
6379;DHT22;3222;48.858;10.128;2022-10-18T10:34:52;19.00;99.90
6379;DHT22;3222;48.858;10.128;2022-10-18T10:37:35;19.00;99.90
6379;DHT22;3222;48.858;10.128;2022-10-18T10:40:18;19.00;99.90
6379;DHT22;3222;48.858;10.128;2022-10-18T10:45:21;18.90;99.90
6379;DHT22;3222;48.858;10.128;2022-10-18T10:47:47;19.00;99.90
6379;DHT22;3222;48.858;10.128;2022-10-18T10:50:25;19.00;99.90
6379;DHT22;3222;48.858;10.128;2022-10-18T10:52:51;19.00;99.90
6379;DHT22;3222;48.858;10.128;2022-10-18T10:55:22;19.00;99.90
6379;DHT22;3222;48.858;10.128;2022-10-18T10:57:50;19.10;99.90
6379;DHT22;3222;48.858;10.128;2022-10-18T11:03:21;19.00;99.90
6379;DHT22;3222;48.858;10.128;2022-10-18T11:05:54;19.10;99.90
6379;DHT22;3222;48.858;10.128;2022-10-18T11:08:24;19.00;99.90
6379;DHT22;3222;48.858;10.128;2022-10-18T11:13:49;19.20;99.90
6379;DHT22;3222;48.858;10.128;2022-10-18T11:16:36;19.20;99.90
6379;DHT22;3222;48.858;10.128;2022-10-18T11:19:27;19.20;99.90
6379;DHT22;3222;48.858;10.128;2022-10-18T11:21:54;19.10;99.90
6379;DHT22;3222;48.858;10.128;2022-10-18T11:24:21;19.10;99.90
6379;DHT22;3222;48.858;10.128;2022-10-18T11:29:48;19.20;99.90
6379;DHT22;3222;48.858;10.128;2022-10-18T11:35:48;19.10;99.90
6379;DHT22;3222;48.858;10.128;2022-10-18T11:41:06;19.30;99.90
6379;DHT22;3222;48.858;10.128;2022-10-18T11:43:54;19.30;99.90
6379;DHT22;3222;48.858;10.128;2022-10-18T11:46:54;19.20;99.90
6379;DHT22;3222;48.858;10.128;2022-10-18T12:05:35;19.20;99.90
6379;DHT22;3222;48.858;10.128;2022-10-18T12:08:14;19.30;99.90
6379;DHT22;3222;48.858;10.128;2022-10-18T12:10:43;19.20;99.90
6379;DHT22;3222;48.858;10.128;2022-10-18T12:13:26;19.20;99.90
6379;DHT22;3222;48.858;10.128;2022-10-18T12:15:54;19.30;99.90
6379;DHT22;3222;48.858;10.128;2022-10-18T12:18:23;19.40;99.90
6379;DHT22;3222;48.858;10.128;2022-10-18T12:20:52;19.40;99.90
6379;DHT22;3222;48.858;10.128;2022-10-18T12:25:58;19.30;99.90
6379;DHT22;3222;48.858;10.128;2022-10-18T12:28:58;19.40;99.90
6379;DHT22;3222;48.858;10.128;2022-10-18T12:31:38;19.40;99.90
6379;DHT22;3222;48.858;10.128;2022-10-18T12:37:05;19.40;99.90
6379;DHT22;3222;48.858;10.128;2022-10-18T12:44:46;19.50;99.90
6379;DHT22;3222;48.858;10.128;2022-10-18T12:47:23;19.40;99.90
6379;DHT22;3222;48.858;10.128;2022-10-18T12:50:01;19.50;99.90
6379;DHT22;3222;48.858;10.128;2022-10-18T12:52:29;19.50;99.90
6379;DHT22;3222;48.858;10.128;2022-10-18T13:13:57;19.70;99.90
6379;DHT22;3222;48.858;10.128;2022-10-18T13:16:56;19.80;99.90
6379;DHT22;3222;48.858;10.128;2022-10-18T13:19:46;19.90;99.90
6379;DHT22;3222;48.858;10.128;2022-10-18T13:25:22;19.90;99.90
6379;DHT22;3222;48.858;10.128;2022-10-18T13:27:58;19.90;99.90
6379;DHT22;3222;48.858;10.128;2022-10-18T13:33:32;20.00;99.90
6379;DHT22;3222;48.858;10.128;2022-10-18T13:38:45;20.00;99.90
6379;DHT22;3222;48.858;10.128;2022-10-18T13:41:18;20.00;99.90
6379;DHT22;3222;48.858;10.128;2022-10-18T13:44:10;20.00;99.90
6379;DHT22;3222;48.858;10.128;2022-10-18T14:01:32;19.90;99.90
6379;DHT22;3222;48.858;10.128;2022-10-18T14:06:35;19.90;99.90
6379;DHT22;3222;48.858;10.128;2022-10-18T14:09:21;19.90;99.90
6379;DHT22;3222;48.858;10.128;2022-10-18T14:12:07;19.90;99.90
6379;DHT22;3222;48.858;10.128;2022-10-18T14:14:44;19.90;99.90
6379;DHT22;3222;48.858;10.128;2022-10-18T14:17:37;19.90;99.90
6379;DHT22;3222;48.858;10.128;2022-10-18T14:20:22;19.90;99.90
6379;DHT22;3222;48.858;10.128;2022-10-18T14:23:14;19.90;99.90
6379;DHT22;3222;48.858;10.128;2022-10-18T14:25:42;19.70;99.90
6379;DHT22;3222;48.858;10.128;2022-10-18T14:28:19;19.80;99.90
6379;DHT22;3222;48.858;10.128;2022-10-18T14:31:03;19.70;99.90
6379;DHT22;3222;48.858;10.128;2022-10-18T14:33:45;19.70;99.90
6379;DHT22;3222;48.858;10.128;2022-10-18T14:38:52;19.60;99.90
6379;DHT22;3222;48.858;10.128;2022-10-18T14:41:29;19.60;99.90
6379;DHT22;3222;48.858;10.128;2022-10-18T14:46:44;19.70;99.90
6379;DHT22;3222;48.858;10.128;2022-10-18T14:49:12;19.60;99.90
6379;DHT22;3222;48.858;10.128;2022-10-18T14:51:40;19.70;99.90
6379;DHT22;3222;48.858;10.128;2022-10-18T14:54:13;19.60;99.90
6379;DHT22;3222;48.858;10.128;2022-10-18T14:56:40;19.60;99.90
6379;DHT22;3222;48.858;10.128;2022-10-18T14:59:48;19.50;99.90
6379;DHT22;3222;48.858;10.128;2022-10-18T15:02:22;19.50;99.90
6379;DHT22;3222;48.858;10.128;2022-10-18T15:04:58;19.50;99.90
6379;DHT22;3222;48.858;10.128;2022-10-18T15:07:24;19.50;99.90
6379;DHT22;3222;48.858;10.128;2022-10-18T15:09:55;19.40;99.90
6379;DHT22;3222;48.858;10.128;2022-10-18T15:12:21;19.40;99.90
6379;DHT22;3222;48.858;10.128;2022-10-18T15:14:47;19.40;99.90
6379;DHT22;3222;48.858;10.128;2022-10-18T15:17:24;19.30;99.90
6379;DHT22;3222;48.858;10.128;2022-10-18T15:20:03;19.40;99.90
6379;DHT22;3222;48.858;10.128;2022-10-18T15:22:42;19.40;99.90
6379;DHT22;3222;48.858;10.128;2022-10-18T15:27:37;19.20;99.90
6379;DHT22;3222;48.858;10.128;2022-10-18T15:30:36;19.20;99.90
6379;DHT22;3222;48.858;10.128;2022-10-18T15:33:04;19.20;99.90
6379;DHT22;3222;48.858;10.128;2022-10-18T15:35:35;19.10;99.90
6379;DHT22;3222;48.858;10.128;2022-10-18T15:38:23;19.10;99.90
6379;DHT22;3222;48.858;10.128;2022-10-18T15:40:49;19.00;99.90
6379;DHT22;3222;48.858;10.128;2022-10-18T15:46:03;19.00;99.90
6379;DHT22;3222;48.858;10.128;2022-10-18T15:48:38;19.10;99.90
6379;DHT22;3222;48.858;10.128;2022-10-18T15:51:07;18.90;99.90
6379;DHT22;3222;48.858;10.128;2022-10-18T15:53:41;18.80;99.90
6379;DHT22;3222;48.858;10.128;2022-10-18T15:58:55;18.90;99.90
6379;DHT22;3222;48.858;10.128;2022-10-18T16:01:26;18.90;99.90
6379;DHT22;3222;48.858;10.128;2022-10-18T16:03:54;18.80;99.90
6379;DHT22;3222;48.858;10.128;2022-10-18T16:06:20;18.70;99.90
6379;DHT22;3222;48.858;10.128;2022-10-18T16:08:48;18.60;99.90
6379;DHT22;3222;48.858;10.128;2022-10-18T16:11:20;18.60;99.90
6379;DHT22;3222;48.858;10.128;2022-10-18T16:13:47;18.70;99.90
6379;DHT22;3222;48.858;10.128;2022-10-18T16:16:15;18.60;99.90
6379;DHT22;3222;48.858;10.128;2022-10-18T16:18:41;18.60;99.90
6379;DHT22;3222;48.858;10.128;2022-10-18T16:21:28;18.50;99.90
6379;DHT22;3222;48.858;10.128;2022-10-18T16:23:54;18.50;99.90
6379;DHT22;3222;48.858;10.128;2022-10-18T16:26:21;18.60;99.90
6379;DHT22;3222;48.858;10.128;2022-10-18T16:28:48;18.60;99.90
6379;DHT22;3222;48.858;10.128;2022-10-18T16:31:17;18.60;99.90
6379;DHT22;3222;48.858;10.128;2022-10-18T16:33:43;18.60;99.90
6379;DHT22;3222;48.858;10.128;2022-10-18T16:36:17;18.60;99.90
6379;DHT22;3222;48.858;10.128;2022-10-18T16:38:44;18.50;99.90
6379;DHT22;3222;48.858;10.128;2022-10-18T16:41:10;18.50;99.90
6379;DHT22;3222;48.858;10.128;2022-10-18T16:43:36;18.50;99.90
6379;DHT22;3222;48.858;10.128;2022-10-18T16:46:03;18.50;99.90
6379;DHT22;3222;48.858;10.128;2022-10-18T16:48:29;18.50;99.90
6379;DHT22;3222;48.858;10.128;2022-10-18T16:50:55;18.50;99.90
6379;DHT22;3222;48.858;10.128;2022-10-18T16:53:22;18.50;99.90
6379;DHT22;3222;48.858;10.128;2022-10-18T16:55:57;18.50;99.90
6379;DHT22;3222;48.858;10.128;2022-10-18T16:58:25;18.50;99.90
6379;DHT22;3222;48.858;10.128;2022-10-18T17:00:50;18.50;99.90
6379;DHT22;3222;48.858;10.128;2022-10-18T17:03:16;18.50;99.90
6379;DHT22;3222;48.858;10.128;2022-10-18T17:05:42;18.40;99.90
6379;DHT22;3222;48.858;10.128;2022-10-18T17:08:20;18.40;99.90
6379;DHT22;3222;48.858;10.128;2022-10-18T17:10:48;18.30;99.90
6379;DHT22;3222;48.858;10.128;2022-10-18T17:13:15;18.40;99.90
6379;DHT22;3222;48.858;10.128;2022-10-18T17:15:42;18.40;99.90
6379;DHT22;3222;48.858;10.128;2022-10-18T17:18:24;18.40;99.90
6379;DHT22;3222;48.858;10.128;2022-10-18T17:20:55;18.50;99.90
6379;DHT22;3222;48.858;10.128;2022-10-18T17:23:21;18.50;99.90
6379;DHT22;3222;48.858;10.128;2022-10-18T17:25:47;18.50;99.90
6379;DHT22;3222;48.858;10.128;2022-10-18T17:28:15;18.40;99.90
6379;DHT22;3222;48.858;10.128;2022-10-18T17:30:43;18.50;99.90
6379;DHT22;3222;48.858;10.128;2022-10-18T17:33:10;18.60;99.90
6379;DHT22;3222;48.858;10.128;2022-10-18T17:35:36;18.50;99.90
6379;DHT22;3222;48.858;10.128;2022-10-18T17:38:02;18.60;99.90
6379;DHT22;3222;48.858;10.128;2022-10-18T17:40:29;18.50;99.90
6379;DHT22;3222;48.858;10.128;2022-10-18T17:42:55;18.40;99.90
6379;DHT22;3222;48.858;10.128;2022-10-18T17:45:21;18.30;99.90
6379;DHT22;3222;48.858;10.128;2022-10-18T17:47:47;18.50;99.90
6379;DHT22;3222;48.858;10.128;2022-10-18T17:50:13;18.50;99.90
6379;DHT22;3222;48.858;10.128;2022-10-18T17:52:40;18.30;99.90
6379;DHT22;3222;48.858;10.128;2022-10-18T17:55:07;18.10;99.90
6379;DHT22;3222;48.858;10.128;2022-10-18T17:57:32;18.00;99.90
6379;DHT22;3222;48.858;10.128;2022-10-18T17:59:58;18.00;99.90
6379;DHT22;3222;48.858;10.128;2022-10-18T18:02:24;18.10;99.90
6379;DHT22;3222;48.858;10.128;2022-10-18T18:04:52;18.20;99.90
6379;DHT22;3222;48.858;10.128;2022-10-18T18:07:18;18.10;99.90
6379;DHT22;3222;48.858;10.128;2022-10-18T18:09:43;18.00;99.90
6379;DHT22;3222;48.858;10.128;2022-10-18T18:12:09;18.10;99.90
6379;DHT22;3222;48.858;10.128;2022-10-18T18:14:34;18.00;99.90
6379;DHT22;3222;48.858;10.128;2022-10-18T18:17:00;17.90;99.90
6379;DHT22;3222;48.858;10.128;2022-10-18T18:19:26;17.90;99.90
6379;DHT22;3222;48.858;10.128;2022-10-18T18:21:52;17.90;99.90
6379;DHT22;3222;48.858;10.128;2022-10-18T18:24:19;18.00;99.90
6379;DHT22;3222;48.858;10.128;2022-10-18T18:26:50;18.10;99.90
6379;DHT22;3222;48.858;10.128;2022-10-18T18:29:16;18.00;99.90
6379;DHT22;3222;48.858;10.128;2022-10-18T18:31:42;17.90;99.90
6379;DHT22;3222;48.858;10.128;2022-10-18T18:34:09;17.80;99.90
6379;DHT22;3222;48.858;10.128;2022-10-18T18:36:34;17.80;99.90
6379;DHT22;3222;48.858;10.128;2022-10-18T18:39:00;17.90;99.90
6379;DHT22;3222;48.858;10.128;2022-10-18T18:41:27;17.90;99.90
6379;DHT22;3222;48.858;10.128;2022-10-18T18:44:01;17.90;99.90
6379;DHT22;3222;48.858;10.128;2022-10-18T18:46:29;17.90;99.90
6379;DHT22;3222;48.858;10.128;2022-10-18T18:48:57;17.90;99.90
6379;DHT22;3222;48.858;10.128;2022-10-18T18:51:23;18.00;99.90